createdAt,value
2019-02-06T00:02:48.565Z,63.17
2019-02-06T00:12:53.099Z,64.60
2019-02-06T00:22:57.579Z,68.00
2019-02-06T00:33:01.971Z,62.73
2019-02-06T00:43:06.381Z,59.13
2019-02-06T00:53:10.779Z,57.77
2019-02-06T01:03:15.703Z,56.30
2019-02-06T01:13:20.130Z,57.87
2019-02-06T01:23:27.386Z,54.33
2019-02-06T01:33:31.777Z,55.80
2019-02-06T01:43:36.289Z,51.27
2019-02-06T01:53:40.744Z,43.93
2019-02-06T02:03:45.180Z,47.47
2019-02-06T02:13:49.632Z,49.87
2019-02-06T02:23:54.139Z,56.80
2019-02-06T02:34:00.892Z,58.47
2019-02-06T02:44:04.735Z,60.93
2019-02-06T02:54:09.215Z,58.53
2019-02-06T03:04:15.217Z,59.03
2019-02-06T03:14:19.660Z,52.77
2019-02-06T03:24:24.174Z,57.87
2019-02-06T03:34:29.172Z,59.20
2019-02-06T03:44:33.577Z,55.43
2019-02-06T03:54:38.114Z,66.40
2019-02-06T04:04:42.924Z,61.87
2019-02-06T04:14:48.365Z,63.93
2019-02-06T04:24:53.240Z,62.37
2019-02-06T04:34:58.144Z,61.90
2019-02-06T04:45:03.127Z,62.07
2019-02-06T04:55:11.588Z,62.07
2019-02-06T05:05:17.584Z,61.40
2019-02-06T05:15:23.054Z,62.63
2019-02-06T05:25:27.869Z,63.17
2019-02-06T05:35:33.964Z,55.27
2019-02-06T05:45:38.893Z,63.37
2019-02-06T05:55:43.804Z,74.50
2019-02-06T06:05:48.725Z,79.27
2019-02-06T06:15:53.677Z,75.87
2019-02-06T06:25:58.552Z,72.13
2019-02-06T06:36:04.956Z,79.23
2019-02-06T06:46:09.891Z,83.97
2019-02-06T06:56:18.897Z,82.90
2019-02-06T07:06:23.791Z,84.00
2019-02-06T07:16:28.724Z,87.83
2019-02-06T07:26:33.627Z,92.50
2019-02-06T07:36:40.485Z,96.87
2019-02-06T07:46:45.765Z,92.50
2019-02-06T07:56:51.256Z,94.53
2019-02-06T08:07:02.457Z,98.77
2019-02-06T08:17:07.286Z,108.33
2019-02-06T08:27:12.161Z,99.90
2019-02-06T08:37:17.033Z,103.93
2019-02-06T08:47:22.011Z,106.73
2019-02-06T08:57:26.901Z,105.10
2019-02-06T09:07:31.766Z,124.93
2019-02-06T09:17:37.330Z,119.13
2019-02-06T09:27:42.294Z,118.70
2019-02-06T09:37:47.399Z,99.93
2019-02-06T09:47:52.324Z,95.13
2019-02-06T09:57:57.619Z,87.33
2019-02-06T10:08:03.632Z,40.00
2019-02-06T10:18:08.489Z,27.93
2019-02-06T10:28:13.368Z,47.87
2019-02-06T10:38:18.786Z,20.83
2019-02-06T10:48:23.709Z,9.20
2019-02-06T10:58:28.553Z,14.33
2019-02-06T11:08:35.405Z,9.27
2019-02-06T11:18:40.367Z,9.17
2019-02-06T11:28:45.305Z,9.83
2019-02-06T11:38:50.250Z,8.37
2019-02-06T11:48:55.230Z,24.70
2019-02-06T11:59:00.127Z,15.80
2019-02-06T12:09:08.324Z,14.63
2019-02-06T12:19:25.263Z,11.10
2019-02-06T12:29:30.080Z,15.03
2019-02-06T12:39:35.154Z,27.83
2019-02-06T12:49:39.975Z,17.20
2019-02-06T12:59:44.924Z,19.00
2019-02-06T13:09:49.837Z,20.00
2019-02-06T13:19:54.722Z,22.00
2019-02-06T13:29:59.575Z,22.23
2019-02-06T13:40:07.365Z,26.00
2019-02-06T13:50:22.099Z,31.17
2019-02-06T14:00:24.865Z,30.40
2019-02-06T14:10:31.546Z,32.43
2019-02-06T14:20:36.884Z,28.23
2019-02-06T14:30:53.804Z,31.80
2019-02-06T14:41:08.832Z,36.53
2019-02-06T14:51:29.329Z,33.60
2019-02-06T15:01:40.680Z,48.43
2019-02-06T15:11:54.846Z,53.23
2019-02-06T15:22:38.049Z,103.23
2019-02-06T15:33:06.278Z,113.67
2019-02-06T15:43:28.075Z,132.50
2019-02-06T15:53:54.502Z,113.33
2019-02-06T16:04:23.372Z,149.47
2019-02-06T16:14:46.674Z,131.33
2019-02-06T16:25:14.712Z,145.23
2019-02-06T16:35:40.557Z,135.53
2019-02-06T16:46:04.555Z,113.17
2019-02-06T16:56:18.585Z,119.60
2019-02-06T17:06:29.763Z,195.70
2019-02-06T17:16:55.849Z,163.37
2019-02-06T17:27:04.246Z,184.27
2019-02-06T17:37:45.566Z,159.17
2019-02-06T17:48:11.836Z,135.77
2019-02-06T17:58:17.016Z,147.80
2019-02-06T18:08:22.246Z,152.77
2019-02-06T18:18:27.613Z,167.97
2019-02-06T18:28:43.326Z,150.73
2019-02-06T18:38:49.832Z,218.80
2019-02-06T18:48:55.441Z,230.77
2019-02-06T18:59:03.767Z,177.70
2019-02-06T19:09:11.352Z,174.20
2019-02-06T19:19:25.167Z,154.90
2019-02-06T19:29:26.529Z,120.70
2019-02-06T19:39:31.968Z,150.93
2019-02-06T19:49:40.301Z,157.77
2019-02-06T19:59:45.779Z,175.30
2019-02-06T20:09:52.804Z,146.93
2019-02-06T20:19:59.071Z,187.40
2019-02-06T20:30:06.010Z,124.93
2019-02-06T20:40:17.045Z,112.27
2019-02-06T20:50:24.695Z,122.40
2019-02-06T21:00:45.307Z,117.07
2019-02-06T21:10:51.753Z,102.27
2019-02-06T21:20:57.006Z,81.60
2019-02-06T21:31:02.555Z,69.87
2019-02-06T21:41:07.804Z,81.40
2019-02-06T21:51:13.031Z,63.67
2019-02-06T22:01:18.169Z,54.80
2019-02-06T22:11:23.004Z,58.80
2019-02-06T22:21:27.924Z,57.53
2019-02-06T22:31:33.044Z,51.80
2019-02-06T22:41:38.045Z,45.40
2019-02-06T22:51:42.919Z,42.17
2019-02-06T23:01:48.047Z,42.43
2019-02-06T23:11:52.964Z,39.43
2019-02-06T23:21:58.861Z,34.67
2019-02-06T23:32:03.826Z,33.63
2019-02-06T23:42:10.027Z,32.57
2019-02-06T23:52:15.415Z,31.13
